Terminal Aerodrome Forecast
Issued by NWS

Home | Current Version | Previous Version | Text Only | Print | Product List | Glossary On
Versions: 1 2 3 4 5 6 7 8 9 10 11 12 13 14 15 16 17 18 19
000
FTUS43 KAPX 111853 AAA
TAFTVC
TAF AMD
KTVC 111853Z 1119/1218 17008KT 5SM -SN OVC022
      TEMPO 1119/1122 2SM -SN
     FM120100 30008KT 3SM -SHSN OVC015
     FM120200 33012G21KT 5SM -SHSN OVC025
     FM120400 33017G28KT 3SM -SHSN BLSN OVC030=

USA.gov is the U.S. government's official web portal to all federal, state and local government web resources and services.